createdAt,value
2018-06-28T00:01:24.784Z,18.93
2018-06-28T00:03:52.720Z,19.27
2018-06-28T00:06:20.709Z,16.30
2018-06-28T00:08:48.626Z,18.07
2018-06-28T00:11:16.558Z,17.27
2018-06-28T00:13:44.469Z,17.50
2018-06-28T00:16:12.349Z,17.50
2018-06-28T00:18:40.330Z,19.60
2018-06-28T00:21:08.353Z,19.53
2018-06-28T00:23:36.236Z,20.80
2018-06-28T00:26:04.166Z,22.57
2018-06-28T00:28:32.060Z,21.27
2018-06-28T00:30:59.963Z,21.23
2018-06-28T00:33:27.858Z,19.53
2018-06-28T00:35:55.729Z,19.17
2018-06-28T00:38:23.608Z,19.03
2018-06-28T00:40:51.486Z,20.33
2018-06-28T00:43:19.388Z,20.07
2018-06-28T00:45:47.323Z,21.37
2018-06-28T00:48:15.188Z,18.93
2018-06-28T00:50:43.107Z,24.10
2018-06-28T00:53:11.023Z,25.63
2018-06-28T00:55:38.961Z,27.10
2018-06-28T00:58:06.940Z,24.60
2018-06-28T01:00:34.843Z,23.93
2018-06-28T01:03:02.848Z,24.10
2018-06-28T01:05:30.762Z,27.37
2018-06-28T01:07:58.677Z,28.33
2018-06-28T01:10:26.589Z,23.87
2018-06-28T01:12:54.485Z,23.30
2018-06-28T01:15:22.397Z,23.97
2018-06-28T01:17:50.264Z,21.27
2018-06-28T01:20:18.222Z,26.40
2018-06-28T01:22:46.114Z,23.83
2018-06-28T01:25:13.977Z,24.50
2018-06-28T01:27:41.860Z,23.67
2018-06-28T01:30:09.773Z,28.07
2018-06-28T01:32:37.675Z,27.13
2018-06-28T01:35:05.685Z,26.03
2018-06-28T01:37:33.580Z,28.97
2018-06-28T01:40:01.488Z,27.60
2018-06-28T01:42:43.017Z,31.23
2018-06-28T01:45:10.969Z,27.00
2018-06-28T01:47:39.262Z,29.70
2018-06-28T01:50:07.135Z,29.90
2018-06-28T01:52:35.020Z,26.63
2018-06-28T01:55:02.949Z,28.57
2018-06-28T01:57:30.867Z,30.23
2018-06-28T01:59:58.749Z,27.20
2018-06-28T02:02:26.607Z,29.10
2018-06-28T02:04:54.504Z,27.90
2018-06-28T02:07:22.404Z,27.33
2018-06-28T02:09:50.316Z,31.37
2018-06-28T02:12:18.195Z,32.97
2018-06-28T02:14:46.160Z,30.57
2018-06-28T02:17:14.058Z,35.17
2018-06-28T02:19:41.941Z,36.77
2018-06-28T02:22:09.833Z,34.00
2018-06-28T02:24:37.782Z,35.07
2018-06-28T02:27:06.039Z,36.03
2018-06-28T02:29:34.061Z,37.10
2018-06-28T02:32:02.001Z,39.70
2018-06-28T02:34:29.945Z,35.00
2018-06-28T02:36:57.941Z,36.93
2018-06-28T02:39:25.882Z,37.20
2018-06-28T02:41:53.803Z,39.47
2018-06-28T02:44:22.237Z,41.37
2018-06-28T02:46:50.180Z,32.77
2018-06-28T02:49:18.227Z,34.17
2018-06-28T02:51:46.154Z,36.40
2018-06-28T02:54:14.033Z,39.60
2018-06-28T02:56:41.986Z,37.73
2018-06-28T02:59:10.095Z,32.13
2018-06-28T03:01:38.898Z,32.67
2018-06-28T03:04:06.912Z,32.80
2018-06-28T03:06:34.846Z,35.43
2018-06-28T03:09:03.309Z,33.80
2018-06-28T03:11:31.319Z,39.90
2018-06-28T03:13:59.322Z,36.70
2018-06-28T03:16:30.390Z,37.20
2018-06-28T03:18:58.332Z,41.23
2018-06-28T03:21:26.233Z,40.53
2018-06-28T03:23:54.257Z,37.43
2018-06-28T03:26:22.166Z,37.23
2018-06-28T03:28:50.114Z,38.30
2018-06-28T03:31:19.871Z,37.63
2018-06-28T03:33:47.828Z,37.30
2018-06-28T03:36:15.781Z,37.33
2018-06-28T03:38:43.671Z,31.00
2018-06-28T03:41:11.547Z,28.80
2018-06-28T03:43:39.466Z,33.50
2018-06-28T03:46:07.373Z,30.07
2018-06-28T03:48:35.274Z,27.93
2018-06-28T03:51:03.219Z,31.50
2018-06-28T03:53:31.140Z,34.73
2018-06-28T03:55:59.444Z,30.90
2018-06-28T03:58:27.336Z,36.10
2018-06-28T04:00:55.280Z,31.53
2018-06-28T04:03:23.228Z,34.03
2018-06-28T04:05:51.432Z,32.17
2018-06-28T04:08:19.425Z,35.17
2018-06-28T04:10:48.099Z,34.97
2018-06-28T04:13:16.100Z,39.40
2018-06-28T04:15:44.912Z,41.57
2018-06-28T04:18:13.514Z,43.00
2018-06-28T04:20:42.344Z,39.20
2018-06-28T04:23:10.360Z,46.33
2018-06-28T04:25:38.411Z,42.70
2018-06-28T04:28:06.347Z,42.57
2018-06-28T04:30:34.267Z,46.40
2018-06-28T04:33:02.322Z,50.73
2018-06-28T04:35:30.390Z,39.77
2018-06-28T04:37:58.389Z,38.90
2018-06-28T04:40:26.347Z,36.93
2018-06-28T04:42:54.344Z,46.20
2018-06-28T04:45:22.331Z,44.83
2018-06-28T04:48:28.494Z,40.63
2018-06-28T04:50:56.442Z,41.20
2018-06-28T04:53:24.374Z,42.03
2018-06-28T04:55:52.275Z,44.10
2018-06-28T04:58:20.228Z,51.53
2018-06-28T05:00:48.204Z,50.23
2018-06-28T05:03:16.186Z,45.10
2018-06-28T05:05:44.181Z,44.10
2018-06-28T05:08:12.183Z,43.37
2018-06-28T05:10:40.231Z,41.97
2018-06-28T05:13:08.255Z,38.40
2018-06-28T05:15:36.326Z,32.57
2018-06-28T05:18:04.460Z,32.07
2018-06-28T05:20:32.490Z,29.83
2018-06-28T05:23:00.454Z,28.27
2018-06-28T05:25:28.432Z,26.53
2018-06-28T05:27:56.438Z,27.63
2018-06-28T05:30:24.408Z,23.27
2018-06-28T05:32:52.356Z,28.80
2018-06-28T05:35:20.379Z,26.40
2018-06-28T05:37:48.506Z,21.93
2018-06-28T05:40:16.475Z,21.70
2018-06-28T05:42:44.396Z,22.40
2018-06-28T05:45:12.359Z,19.37
2018-06-28T05:47:40.374Z,19.73
2018-06-28T05:50:08.330Z,21.13
2018-06-28T05:52:36.318Z,21.00
2018-06-28T05:55:04.248Z,18.20
2018-06-28T05:57:32.119Z,15.43
2018-06-28T06:00:00.033Z,15.33
2018-06-28T06:02:27.918Z,15.00
2018-06-28T06:04:55.881Z,14.33
2018-06-28T06:07:23.790Z,15.47
2018-06-28T06:09:51.758Z,16.77
2018-06-28T06:12:19.706Z,13.73
2018-06-28T06:14:47.562Z,11.63
2018-06-28T06:17:15.479Z,10.40
2018-06-28T06:19:43.408Z,10.83
2018-06-28T06:22:11.334Z,12.07
2018-06-28T06:24:39.396Z,13.20
2018-06-28T06:27:07.311Z,12.37
2018-06-28T06:29:35.208Z,12.70
2018-06-28T06:32:03.167Z,13.77
2018-06-28T06:34:31.011Z,13.37
2018-06-28T06:36:58.912Z,12.00
2018-06-28T06:39:26.930Z,11.77
2018-06-28T06:41:54.786Z,12.20
2018-06-28T06:44:22.664Z,12.03
2018-06-28T06:46:50.558Z,10.73
2018-06-28T06:49:18.888Z,9.37
2018-06-28T06:51:46.784Z,8.77
2018-06-28T06:54:14.707Z,8.93
2018-06-28T06:56:42.678Z,12.90
2018-06-28T06:59:10.522Z,14.43
2018-06-28T07:01:38.418Z,13.90
2018-06-28T07:04:06.433Z,15.20
2018-06-28T07:06:34.316Z,15.70
2018-06-28T07:09:02.199Z,13.40
2018-06-28T07:11:30.079Z,13.37
2018-06-28T07:13:57.966Z,13.10
2018-06-28T07:16:25.895Z,13.63
2018-06-28T07:18:53.813Z,12.53
2018-06-28T07:21:21.732Z,12.10
2018-06-28T07:23:49.633Z,11.60
2018-06-28T07:26:17.605Z,11.57
2018-06-28T07:28:45.659Z,11.43
2018-06-28T07:31:13.539Z,10.70
2018-06-28T07:33:41.390Z,11.87
2018-06-28T07:36:09.396Z,10.30
2018-06-28T07:38:37.227Z,10.00
2018-06-28T07:41:05.209Z,13.40
2018-06-28T07:43:33.054Z,9.73
2018-06-28T07:46:00.907Z,9.60
2018-06-28T07:48:28.754Z,14.03
2018-06-28T07:50:56.709Z,9.90
2018-06-28T07:53:24.603Z,11.70
2018-06-28T07:55:52.514Z,12.60
2018-06-28T07:58:20.461Z,11.67
2018-06-28T08:00:48.331Z,12.33
2018-06-28T08:03:16.232Z,11.70
2018-06-28T08:05:44.144Z,13.17
2018-06-28T08:08:11.997Z,12.33
2018-06-28T08:10:39.878Z,12.90
2018-06-28T08:13:07.860Z,13.60
2018-06-28T08:15:35.767Z,14.20
2018-06-28T08:18:03.686Z,9.63
2018-06-28T08:20:31.589Z,11.27
2018-06-28T08:22:59.564Z,11.17
2018-06-28T08:25:27.470Z,10.57
2018-06-28T08:27:55.417Z,10.43
2018-06-28T08:30:23.289Z,11.23
2018-06-28T08:32:51.191Z,8.93
2018-06-28T08:35:19.116Z,10.23
2018-06-28T08:37:47.018Z,9.80
2018-06-28T08:40:14.958Z,9.43
2018-06-28T08:42:42.947Z,8.50
2018-06-28T08:45:10.863Z,7.67
2018-06-28T08:47:38.816Z,7.47
2018-06-28T08:50:06.712Z,7.83
2018-06-28T08:52:34.676Z,7.67
2018-06-28T08:55:02.691Z,7.60
2018-06-28T08:57:30.629Z,7.00
2018-06-28T08:59:58.773Z,6.90
2018-06-28T09:02:26.639Z,8.27
2018-06-28T09:04:54.558Z,7.97
2018-06-28T09:07:22.795Z,7.43
2018-06-28T09:09:50.938Z,8.07
2018-06-28T09:12:18.836Z,7.17
2018-06-28T09:14:46.708Z,7.10
2018-06-28T09:17:14.607Z,8.10
2018-06-28T09:19:42.471Z,7.30
2018-06-28T09:22:10.358Z,7.87
2018-06-28T09:24:38.285Z,7.40
2018-06-28T09:27:06.331Z,7.47
2018-06-28T09:29:34.416Z,6.83
2018-06-28T09:32:02.306Z,7.43
2018-06-28T09:34:30.227Z,6.77
2018-06-28T09:36:58.265Z,6.40
2018-06-28T09:39:26.184Z,6.70
2018-06-28T09:41:54.143Z,7.70
2018-06-28T09:44:22.143Z,6.47
2018-06-28T09:46:50.108Z,6.77
2018-06-28T09:49:18.015Z,5.97
2018-06-28T09:51:45.895Z,5.93
2018-06-28T09:54:13.772Z,7.43
2018-06-28T09:56:41.805Z,6.47
2018-06-28T09:59:09.717Z,6.70
2018-06-28T10:01:37.594Z,6.23
2018-06-28T10:04:05.520Z,7.10
2018-06-28T10:06:33.384Z,6.73
2018-06-28T10:09:01.265Z,6.07
2018-06-28T10:11:29.208Z,6.50
2018-06-28T10:13:57.075Z,6.97
2018-06-28T10:16:25.036Z,6.40
2018-06-28T10:18:52.927Z,6.97
2018-06-28T10:21:20.772Z,6.63
2018-06-28T10:23:48.644Z,8.13
2018-06-28T10:26:16.552Z,7.33
2018-06-28T10:28:44.462Z,7.23
2018-06-28T10:31:12.334Z,6.57
2018-06-28T10:33:40.222Z,6.90
2018-06-28T10:36:08.138Z,6.47
2018-06-28T10:38:36.081Z,7.40
2018-06-28T10:41:04.055Z,6.83
2018-06-28T10:43:31.960Z,6.83
2018-06-28T10:45:59.891Z,6.67
2018-06-28T10:48:27.714Z,7.73
2018-06-28T10:50:55.574Z,6.67
2018-06-28T10:53:23.514Z,7.47
2018-06-28T10:55:51.720Z,6.97
2018-06-28T10:58:19.645Z,7.87
2018-06-28T11:00:47.851Z,7.63
2018-06-28T11:03:15.763Z,8.57
2018-06-28T11:05:43.668Z,7.97
2018-06-28T11:08:11.555Z,7.23
2018-06-28T11:10:39.485Z,7.00
2018-06-28T11:13:07.364Z,7.23
2018-06-28T11:15:35.282Z,8.03
2018-06-28T11:18:03.239Z,8.13
2018-06-28T11:20:31.115Z,8.33
2018-06-28T11:22:59.012Z,10.53
2018-06-28T11:25:26.911Z,10.47
2018-06-28T11:27:54.916Z,11.67
2018-06-28T11:30:22.933Z,14.70
2018-06-28T11:32:50.806Z,11.70
2018-06-28T11:35:18.694Z,11.80
2018-06-28T11:37:46.567Z,15.20
2018-06-28T11:40:14.431Z,15.60
2018-06-28T11:42:42.330Z,15.07
2018-06-28T11:45:10.267Z,18.70
2018-06-28T11:47:38.127Z,16.70
2018-06-28T11:50:06.005Z,18.70
2018-06-28T11:52:33.875Z,18.53
2018-06-28T11:55:01.767Z,19.03
2018-06-28T11:57:29.862Z,24.00
2018-06-28T11:59:57.724Z,20.07
2018-06-28T12:02:25.745Z,20.30
2018-06-28T12:04:53.745Z,24.57
2018-06-28T12:07:21.776Z,23.93
2018-06-28T12:09:49.763Z,26.30
2018-06-28T12:12:17.818Z,25.13
2018-06-28T12:14:45.760Z,24.33
2018-06-28T12:17:13.678Z,22.20
2018-06-28T12:19:41.696Z,25.07
2018-06-28T12:22:09.728Z,27.60
2018-06-28T12:24:37.748Z,25.37
2018-06-28T12:27:05.717Z,26.47
2018-06-28T12:29:33.799Z,30.10
2018-06-28T12:32:01.741Z,24.13
2018-06-28T12:34:29.690Z,21.70
2018-06-28T12:36:57.612Z,19.80
2018-06-28T12:39:25.517Z,27.53
2018-06-28T12:41:53.440Z,23.77
2018-06-28T12:44:21.342Z,21.20
2018-06-28T12:48:56.508Z,22.80
2018-06-28T12:51:35.344Z,21.90
2018-06-28T12:54:03.355Z,20.20
2018-06-28T12:56:32.456Z,18.50
2018-06-28T12:59:01.645Z,19.00
2018-06-28T13:01:29.939Z,20.83
2018-06-28T13:03:58.097Z,24.97
2018-06-28T13:06:26.052Z,19.70
2018-06-28T13:08:54.665Z,18.57
2018-06-28T13:11:22.827Z,18.43
2018-06-28T13:13:50.843Z,15.30
2018-06-28T13:16:19.488Z,16.30
2018-06-28T13:18:48.183Z,17.47
2018-06-28T13:21:16.185Z,14.77
2018-06-28T13:23:44.241Z,16.47
2018-06-28T13:26:13.287Z,15.07
2018-06-28T13:28:41.822Z,15.20
2018-06-28T13:31:09.720Z,18.97
2018-06-28T13:33:37.708Z,17.10
2018-06-28T13:36:05.740Z,16.93
2018-06-28T13:38:33.686Z,14.73
2018-06-28T13:41:01.912Z,12.97
2018-06-28T13:43:29.789Z,12.40
2018-06-28T13:45:57.731Z,14.33
2018-06-28T13:48:25.630Z,13.53
2018-06-28T13:50:53.958Z,15.10
2018-06-28T13:53:22.165Z,13.77
2018-06-28T13:55:50.157Z,12.80
2018-06-28T13:58:18.205Z,15.57
2018-06-28T14:00:46.207Z,12.47
2018-06-28T14:03:14.580Z,12.50
2018-06-28T14:05:42.396Z,12.77
2018-06-28T14:08:10.499Z,11.13
2018-06-28T14:10:38.682Z,14.70
2018-06-28T14:13:06.674Z,9.07
2018-06-28T14:15:34.654Z,13.13
2018-06-28T14:18:02.536Z,10.33
2018-06-28T14:20:30.547Z,9.40
2018-06-28T14:22:58.325Z,9.53
2018-06-28T14:25:26.188Z,9.67
2018-06-28T14:27:54.068Z,11.63
2018-06-28T14:30:21.957Z,19.53
2018-06-28T14:32:50.138Z,18.67
2018-06-28T14:35:18.046Z,18.33
2018-06-28T14:37:45.970Z,17.33
2018-06-28T14:40:13.847Z,19.23
2018-06-28T14:42:41.744Z,15.27
2018-06-28T14:45:09.739Z,15.97
2018-06-28T14:47:37.715Z,17.13
2018-06-28T14:50:05.710Z,18.47
2018-06-28T14:52:33.661Z,14.47
2018-06-28T14:55:01.601Z,13.90
2018-06-28T14:57:29.520Z,16.23
2018-06-28T14:59:57.585Z,12.87
2018-06-28T15:02:25.565Z,13.03
2018-06-28T15:04:53.457Z,12.00
2018-06-28T15:07:21.391Z,13.13
2018-06-28T15:09:49.344Z,13.07
2018-06-28T15:12:17.270Z,13.50
2018-06-28T15:14:45.175Z,13.13
2018-06-28T15:17:13.094Z,12.60
2018-06-28T15:19:41.020Z,9.27
2018-06-28T15:22:08.985Z,10.47
2018-06-28T15:24:37.868Z,9.17
2018-06-28T15:27:05.875Z,8.07
2018-06-28T15:29:34.960Z,9.30
2018-06-28T15:32:03.011Z,12.73
2018-06-28T15:34:31.345Z,11.90
2018-06-28T15:36:59.402Z,11.23
2018-06-28T15:39:27.430Z,10.43
2018-06-28T15:41:55.451Z,11.00
2018-06-28T15:44:23.382Z,8.10
2018-06-28T15:46:51.430Z,9.27
2018-06-28T15:49:19.363Z,9.40
2018-06-28T15:51:47.345Z,10.43
2018-06-28T15:54:15.252Z,10.27
2018-06-28T15:56:43.148Z,12.23
2018-06-28T15:59:11.084Z,11.40
2018-06-28T16:01:39.004Z,9.93
2018-06-28T16:04:06.926Z,10.70
2018-06-28T16:06:34.838Z,11.00
2018-06-28T16:09:03.227Z,10.13
2018-06-28T16:11:31.313Z,10.47
2018-06-28T16:13:59.225Z,11.50
2018-06-28T16:16:27.143Z,12.40
2018-06-28T16:18:55.127Z,10.27
2018-06-28T16:21:23.036Z,10.17
2018-06-28T16:23:50.910Z,6.87
2018-06-28T16:26:18.820Z,6.10
2018-06-28T16:28:46.818Z,6.63
2018-06-28T16:31:14.691Z,5.40
2018-06-28T16:33:42.559Z,5.23
2018-06-28T16:36:10.463Z,5.93
2018-06-28T16:38:38.318Z,6.40
2018-06-28T16:41:06.183Z,3.57
2018-06-28T16:43:34.105Z,3.57
2018-06-28T16:46:02.008Z,4.93
2018-06-28T16:48:29.901Z,3.90
2018-06-28T16:50:57.765Z,4.33
2018-06-28T16:53:25.657Z,3.50
2018-06-28T16:55:53.539Z,4.47
2018-06-28T16:58:21.389Z,4.87
2018-06-28T17:00:49.270Z,5.80
2018-06-28T17:03:17.150Z,6.60
2018-06-28T17:05:45.590Z,5.03
2018-06-28T17:08:13.522Z,4.53
2018-06-28T17:10:41.437Z,4.90
2018-06-28T17:13:09.372Z,5.77
2018-06-28T17:15:37.677Z,9.17
2018-06-28T17:18:05.589Z,5.90
2018-06-28T17:20:33.589Z,4.90
2018-06-28T17:23:01.480Z,7.90
2018-06-28T17:25:29.433Z,6.53
2018-06-28T17:27:57.487Z,7.72
2018-06-28T17:30:25.817Z,6.40
2018-06-28T17:32:53.835Z,7.43
2018-06-28T17:35:21.732Z,8.37
2018-06-28T17:37:49.695Z,7.70
2018-06-28T17:40:17.667Z,6.60
2018-06-28T17:42:45.582Z,6.50
2018-06-28T17:45:13.530Z,10.00
2018-06-28T17:47:41.439Z,8.53
2018-06-28T17:50:09.376Z,7.40
2018-06-28T17:52:37.255Z,9.07
2018-06-28T17:55:05.258Z,9.00
2018-06-28T17:57:33.143Z,10.80
2018-06-28T18:00:01.083Z,9.40
2018-06-28T18:02:29.009Z,7.97
2018-06-28T18:04:57.048Z,7.83
2018-06-28T18:07:24.979Z,6.13
2018-06-28T18:09:52.885Z,6.40
2018-06-28T18:12:20.797Z,7.40
2018-06-28T18:14:48.730Z,8.67
2018-06-28T18:17:16.701Z,6.60
2018-06-28T18:19:44.571Z,9.67
2018-06-28T18:22:12.504Z,8.40
2018-06-28T18:24:40.431Z,7.70
2018-06-28T18:27:08.352Z,7.67
2018-06-28T18:29:36.293Z,4.70
2018-06-28T18:32:04.175Z,5.50
2018-06-28T18:34:32.123Z,8.40
2018-06-28T18:37:00.115Z,12.90
2018-06-28T18:39:28.067Z,12.03
2018-06-28T18:41:56.036Z,10.73
2018-06-28T18:44:24.013Z,17.77
2018-06-28T18:46:52.110Z,12.33
2018-06-28T18:49:20.122Z,18.70
2018-06-28T18:51:48.050Z,16.20
2018-06-28T18:54:16.012Z,11.50
2018-06-28T18:56:43.957Z,13.03
2018-06-28T18:59:11.863Z,12.70
2018-06-28T19:01:39.750Z,10.57
2018-06-28T19:04:07.675Z,12.30
2018-06-28T19:06:35.585Z,14.83
2018-06-28T19:09:05.643Z,13.07
2018-06-28T19:11:33.549Z,12.60
2018-06-28T19:14:06.902Z,15.60
2018-06-28T19:16:40.071Z,10.83
2018-06-28T19:19:07.927Z,9.27
2018-06-28T19:21:41.213Z,13.07
2018-06-28T19:24:09.470Z,13.00
2018-06-28T19:26:37.344Z,12.17
2018-06-28T19:29:10.809Z,15.83
2018-06-28T19:31:44.363Z,10.07
2018-06-28T19:34:12.335Z,11.33
2018-06-28T19:36:40.238Z,10.77
2018-06-28T19:39:13.974Z,11.93
2018-06-28T19:43:49.916Z,10.47
2018-06-28T19:46:17.865Z,12.13
2018-06-28T19:48:45.849Z,9.53
2018-06-28T19:51:19.122Z,10.67
2018-06-28T19:53:47.013Z,10.77
2018-06-28T19:56:15.010Z,11.43
2018-06-28T19:58:42.871Z,10.60
2018-06-28T20:01:16.188Z,12.73
2018-06-28T20:03:49.470Z,12.17
2018-06-28T20:06:17.393Z,11.93
2018-06-28T20:08:45.269Z,13.90
2018-06-28T20:11:13.215Z,14.43
2018-06-28T20:13:46.599Z,16.37
2018-06-28T20:16:19.987Z,14.60
2018-06-28T20:18:53.336Z,14.60
2018-06-28T20:21:21.205Z,13.17
2018-06-28T20:23:49.092Z,11.80
2018-06-28T20:26:22.450Z,15.23
2018-06-28T20:28:55.723Z,13.40
2018-06-28T20:31:29.184Z,13.83
2018-06-28T20:34:02.665Z,14.67
2018-06-28T20:36:30.572Z,14.40
2018-06-28T20:38:58.449Z,14.97
2018-06-28T20:41:26.263Z,15.40
2018-06-28T20:43:54.224Z,14.67
2018-06-28T20:46:22.515Z,15.83
2018-06-28T20:48:50.424Z,16.37
2018-06-28T20:51:18.389Z,13.43
2018-06-28T20:53:46.191Z,15.80
2018-06-28T20:56:14.065Z,12.43
2018-06-28T20:58:42.142Z,11.93
2018-06-28T21:01:10.070Z,12.83
2018-06-28T21:03:38.211Z,11.20
2018-06-28T21:06:06.091Z,14.03
2018-06-28T21:08:33.923Z,12.37
2018-06-28T21:11:01.776Z,12.47
2018-06-28T21:13:29.621Z,12.47
2018-06-28T21:15:57.475Z,12.23
2018-06-28T21:18:25.295Z,11.00
2018-06-28T21:20:53.067Z,8.00
2018-06-28T21:23:20.849Z,10.33
2018-06-28T21:25:48.654Z,7.80
2018-06-28T21:28:16.505Z,6.23
2018-06-28T21:30:44.346Z,6.93
2018-06-28T21:33:12.144Z,6.73
2018-06-28T21:35:39.947Z,7.37
2018-06-28T21:38:08.024Z,7.40
2018-06-28T21:40:35.843Z,10.53
2018-06-28T21:43:03.651Z,13.17
2018-06-28T21:45:31.423Z,9.23
2018-06-28T21:47:59.234Z,9.00
2018-06-28T21:50:26.994Z,10.40
2018-06-28T21:52:54.842Z,9.93
2018-06-28T21:55:22.912Z,8.63
2018-06-28T21:57:50.678Z,8.47
2018-06-28T22:00:29.527Z,8.63
2018-06-28T22:02:57.820Z,9.23
2018-06-28T22:05:25.665Z,8.27
2018-06-28T22:07:53.572Z,8.13
2018-06-28T22:10:21.959Z,9.03
2018-06-28T22:12:49.772Z,10.10
2018-06-28T22:15:23.174Z,8.70
2018-06-28T22:17:51.184Z,8.67
2018-06-28T22:20:18.992Z,7.60
2018-06-28T22:22:46.767Z,7.93
2018-06-28T22:25:14.948Z,8.03
2018-06-28T22:27:42.747Z,8.30
2018-06-28T22:30:10.571Z,6.57
2018-06-28T22:32:38.387Z,5.97
2018-06-28T22:35:06.200Z,6.73
2018-06-28T22:37:34.000Z,6.17
2018-06-28T22:40:01.809Z,7.30
2018-06-28T22:42:29.684Z,5.70
2018-06-28T22:44:57.571Z,5.73
2018-06-28T22:47:25.366Z,4.40
2018-06-28T22:49:53.191Z,6.70
2018-06-28T22:52:20.983Z,4.20
2018-06-28T22:54:48.765Z,4.07
2018-06-28T22:57:16.564Z,3.27
2018-06-28T22:59:44.366Z,4.53
2018-06-28T23:02:12.465Z,4.30
2018-06-28T23:04:40.370Z,4.77
2018-06-28T23:07:08.223Z,3.33
2018-06-28T23:09:36.086Z,4.33
2018-06-28T23:12:03.940Z,3.93
2018-06-28T23:14:31.778Z,4.13
2018-06-28T23:16:59.627Z,7.27
2018-06-28T23:19:27.494Z,3.90
2018-06-28T23:21:55.328Z,5.20
2018-06-28T23:24:23.199Z,9.87
2018-06-28T23:26:51.055Z,7.93
2018-06-28T23:29:18.927Z,10.50
2018-06-28T23:31:46.826Z,10.03
2018-06-28T23:34:14.691Z,10.57
2018-06-28T23:36:42.613Z,7.57
2018-06-28T23:39:11.510Z,4.73
2018-06-28T23:41:39.749Z,4.87
2018-06-28T23:44:08.094Z,5.63
2018-06-28T23:46:36.280Z,6.53
2018-06-28T23:49:04.467Z,5.67
2018-06-28T23:51:32.559Z,6.50
2018-06-28T23:54:01.094Z,6.70
2018-06-28T23:56:29.028Z,6.93
2018-06-28T23:58:56.807Z,8.80
